createdAt,value
2019-04-26T06:30:44.992Z,43.80
2019-04-26T06:33:35.059Z,45.20
2019-04-26T06:36:09.787Z,45.30
2019-04-26T06:39:32.137Z,45.70
2019-04-26T06:42:46.451Z,46.00
2019-04-26T06:46:11.115Z,46.10
2019-04-26T06:49:27.632Z,46.20
2019-04-26T06:52:05.072Z,46.40
2019-04-26T06:55:17.116Z,46.60
2019-04-26T06:58:28.920Z,46.80
2019-04-26T07:01:23.655Z,47.20
2019-04-26T07:05:02.783Z,47.20
2019-04-26T07:08:15.726Z,47.40
2019-04-26T07:11:02.758Z,47.50
2019-04-26T07:14:05.272Z,47.70
2019-04-26T07:16:40.249Z,47.70
2019-04-26T07:20:00.862Z,47.40
2019-04-26T07:23:23.933Z,46.90
2019-04-26T07:26:27.029Z,46.60
2019-04-26T07:30:03.182Z,45.90
2019-04-26T07:33:16.002Z,45.60
2019-04-26T07:36:05.679Z,45.00
2019-04-26T07:39:13.672Z,45.30
2019-04-26T07:42:20.246Z,44.00
2019-04-26T07:45:10.731Z,44.20
2019-04-26T07:48:30.166Z,43.90
2019-04-26T07:51:36.121Z,43.80
2019-04-26T07:54:37.349Z,43.40
2019-04-26T07:57:41.699Z,43.40
2019-04-26T08:00:17.097Z,42.90
2019-04-26T08:03:06.982Z,42.70
2019-04-26T08:05:45.295Z,42.30
2019-04-26T08:08:18.266Z,42.30
2019-04-26T08:11:04.423Z,41.70
2019-04-26T08:13:34.572Z,41.70
2019-04-26T08:16:33.827Z,41.80
2019-04-26T08:19:10.325Z,41.80
2019-04-26T08:21:47.902Z,42.10
2019-04-26T08:24:23.056Z,42.50
2019-04-26T08:27:23.770Z,43.00
2019-04-26T08:30:03.541Z,43.50
2019-04-26T08:32:40.366Z,43.70
2019-04-26T08:35:21.911Z,44.50
2019-04-26T08:37:54.994Z,44.80
2019-04-26T08:40:30.912Z,44.90
2019-04-26T08:43:30.789Z,45.00
2019-04-26T08:46:23.639Z,45.40
2019-04-26T08:49:11.646Z,45.20
2019-04-26T08:51:52.204Z,45.40
2019-04-26T08:54:27.898Z,45.70
2019-04-26T08:57:05.897Z,46.10
2019-04-26T08:59:42.648Z,46.70
2019-04-26T09:02:38.370Z,46.80
2019-04-26T09:05:41.271Z,47.10
2019-04-26T09:08:12.163Z,47.40
2019-04-26T09:10:52.716Z,46.40
2019-04-26T09:13:25.420Z,46.00
2019-04-26T09:16:07.428Z,45.20
2019-04-26T09:18:43.544Z,45.00
2019-04-26T09:21:13.398Z,44.50
2019-04-26T09:24:03.947Z,44.70
2019-04-26T09:26:48.464Z,44.80
2019-04-26T09:29:45.573Z,44.90
2019-04-26T09:32:38.071Z,45.20
2019-04-26T09:35:11.216Z,45.40
2019-04-26T09:37:40.671Z,44.90
2019-04-26T09:40:21.730Z,44.60
2019-04-26T09:42:54.433Z,44.60
2019-04-26T09:45:48.497Z,44.90
2019-04-26T09:48:24.643Z,45.00
2019-04-26T09:50:58.970Z,45.10
2019-04-26T09:53:29.561Z,45.40
2019-04-26T09:56:04.400Z,45.70
2019-04-26T09:58:35.330Z,46.00
2019-04-26T10:01:09.030Z,46.30
2019-04-26T10:03:55.842Z,46.40
2019-04-26T10:06:47.835Z,46.50
2019-04-26T10:09:30.882Z,45.90
2019-04-26T10:12:14.140Z,45.30
2019-04-26T10:14:51.965Z,42.90
2019-04-26T10:17:27.015Z,41.80
2019-04-26T10:19:58.373Z,41.40
2019-04-26T10:22:32.055Z,41.30
2019-04-26T10:25:08.046Z,41.00
2019-04-26T10:27:40.867Z,41.30
2019-04-26T10:30:21.843Z,41.50
2019-04-26T10:32:51.064Z,41.80
2019-04-26T10:35:28.276Z,42.20
2019-04-26T10:38:05.678Z,42.20
2019-04-26T10:40:39.117Z,42.20
2019-04-26T10:43:11.887Z,41.40
2019-04-26T10:45:45.971Z,41.20
2019-04-26T10:48:17.323Z,40.70
2019-04-26T10:50:50.166Z,40.00
2019-04-26T10:53:38.866Z,39.70
2019-04-26T10:56:33.014Z,39.70
2019-04-26T10:59:22.752Z,39.60
2019-04-26T11:01:53.482Z,39.60
2019-04-26T11:04:26.009Z,38.80
2019-04-26T11:06:58.074Z,38.10
2019-04-26T11:09:29.343Z,37.50
2019-04-26T11:12:11.762Z,37.50
2019-04-26T11:14:42.453Z,37.20
2019-04-26T11:17:16.045Z,37.40
2019-04-26T11:20:09.851Z,37.80
2019-04-26T11:22:40.594Z,38.40
2019-04-26T11:25:12.337Z,38.90
2019-04-26T11:27:48.519Z,39.00
2019-04-26T11:30:20.795Z,38.80
2019-04-26T11:32:50.442Z,37.40
2019-04-26T11:35:21.825Z,36.60
2019-04-26T11:37:55.169Z,36.70
2019-04-26T11:40:25.780Z,36.80
2019-04-26T11:42:56.295Z,36.80
2019-04-26T11:45:26.875Z,36.90
2019-04-26T11:47:57.351Z,36.00
2019-04-26T11:50:30.175Z,36.40
2019-04-26T11:53:00.640Z,36.00
2019-04-26T11:55:31.489Z,36.30
2019-04-26T11:58:04.595Z,36.40
2019-04-26T12:00:39.870Z,36.40
2019-04-26T12:03:11.671Z,37.00
2019-04-26T12:06:05.560Z,36.60
2019-04-26T12:08:50.464Z,37.90
2019-04-26T12:11:31.321Z,37.90
2019-04-26T12:13:55.449Z,38.50
2019-04-26T12:16:47.156Z,38.50
2019-04-26T12:19:08.713Z,38.70
2019-04-26T12:21:39.139Z,38.50
2019-04-26T12:27:01.849Z,37.70
2019-04-26T12:29:32.275Z,37.60
2019-04-26T12:32:02.694Z,38.30
2019-04-26T12:34:33.415Z,38.40
2019-04-26T12:37:03.993Z,38.60
2019-04-26T12:39:36.768Z,38.60
2019-04-26T12:42:08.207Z,38.40
2019-04-26T12:44:47.115Z,38.00
2019-04-26T12:47:22.263Z,38.30
2019-04-26T12:49:54.586Z,38.40
2019-04-26T12:52:24.964Z,37.80
2019-04-26T12:54:57.572Z,37.80
2019-04-26T13:00:16.810Z,37.90
2019-04-26T13:02:50.089Z,37.60
2019-04-26T13:05:23.509Z,37.20
2019-04-26T13:07:54.866Z,37.10
2019-04-26T13:10:50.683Z,36.60
2019-04-26T13:13:50.990Z,34.40
2019-04-26T13:18:41.115Z,35.20
2019-04-26T13:21:11.932Z,35.10
2019-04-26T13:23:42.408Z,35.00
2019-04-26T13:26:12.867Z,33.30
2019-04-26T13:28:43.154Z,32.90
2019-04-26T13:31:16.094Z,33.40
2019-04-26T13:33:48.953Z,33.70
2019-04-26T13:36:19.412Z,34.00
2019-04-26T13:38:49.751Z,34.10
2019-04-26T13:41:20.405Z,33.80
2019-04-26T13:43:50.938Z,34.20
2019-04-26T13:46:35.920Z,33.50
2019-04-26T13:49:31.657Z,33.60
2019-04-26T13:52:02.158Z,33.60
2019-04-26T13:54:35.742Z,33.60
2019-04-26T13:57:10.061Z,33.60
2019-04-26T13:59:39.187Z,33.50
2019-04-26T14:02:11.999Z,33.60
2019-04-26T14:04:42.816Z,33.70
2019-04-26T14:07:13.285Z,33.90
2019-04-26T14:09:43.642Z,34.00
2019-04-26T14:12:18.677Z,33.90
2019-04-26T14:14:46.395Z,33.80
2019-04-26T14:17:16.885Z,33.80
2019-04-26T14:19:49.468Z,33.90
2019-04-26T14:22:20.949Z,33.90
2019-04-26T14:25:00.680Z,34.10
2019-04-26T14:27:36.354Z,34.10
2019-04-26T14:30:08.921Z,34.10
2019-04-26T14:32:39.279Z,34.10
2019-04-26T14:35:11.414Z,34.90
2019-04-26T14:37:45.327Z,34.20
2019-04-26T14:40:17.155Z,34.20
2019-04-26T14:42:47.199Z,34.30
2019-04-26T14:45:23.948Z,34.40
2019-04-26T14:47:49.651Z,34.30
2019-04-26T14:50:19.972Z,34.30
2019-04-26T14:52:50.198Z,34.20
2019-04-26T14:55:21.080Z,34.20
2019-04-26T14:57:53.992Z,34.20
2019-04-26T15:00:30.316Z,34.30
2019-04-26T15:03:17.293Z,34.30
2019-04-26T15:06:09.095Z,34.30
2019-04-26T15:08:40.542Z,34.30
2019-04-26T15:11:12.850Z,34.30
2019-04-26T15:13:45.366Z,34.30
2019-04-26T15:16:15.378Z,34.30
2019-04-26T15:18:45.961Z,34.40
2019-04-26T15:21:16.388Z,34.40
2019-04-26T15:23:46.946Z,34.50
2019-04-26T15:26:18.531Z,35.30
2019-04-26T15:28:50.410Z,34.50
2019-04-26T15:31:24.509Z,34.60
2019-04-26T15:33:53.494Z,34.60
2019-04-26T15:36:24.199Z,34.70
2019-04-26T15:38:55.472Z,34.70
2019-04-26T15:41:39.069Z,34.80
2019-04-26T15:44:16.224Z,34.70
2019-04-26T15:46:55.734Z,34.80
2019-04-26T15:49:42.946Z,34.80
2019-04-26T15:52:13.381Z,34.90
2019-04-26T15:54:43.712Z,34.90
2019-04-26T15:57:14.135Z,34.90
2019-04-26T15:59:44.555Z,34.90
2019-04-26T16:02:18.452Z,35.00
2019-04-26T16:04:47.370Z,35.00
2019-04-26T16:07:27.475Z,34.90
2019-04-26T16:09:55.874Z,34.90
2019-04-26T16:12:25.822Z,34.90
2019-04-26T16:14:56.140Z,35.00
2019-04-26T16:17:26.638Z,34.90
2019-04-26T16:20:00.135Z,34.90
2019-04-26T16:22:30.092Z,34.90
2019-04-26T16:25:05.019Z,35.30
2019-04-26T16:27:35.030Z,35.20
2019-04-26T16:30:28.516Z,35.10
2019-04-26T16:33:07.279Z,35.10
2019-04-26T16:35:37.650Z,35.30
2019-04-26T16:38:25.795Z,35.30
2019-04-26T16:40:56.235Z,35.40
2019-04-26T16:43:36.596Z,35.40
2019-04-26T16:45:58.637Z,35.40
2019-04-26T16:48:29.019Z,35.60
2019-04-26T16:51:05.633Z,35.60
2019-04-26T16:53:46.410Z,35.60
2019-04-26T16:56:03.761Z,35.70
2019-04-26T16:58:38.156Z,35.70
2019-04-26T17:01:10.270Z,35.80
2019-04-26T17:03:45.231Z,35.80
2019-04-26T17:06:13.942Z,35.90
2019-04-26T17:08:49.185Z,35.90
2019-04-26T17:11:14.768Z,35.90
2019-04-26T17:13:51.281Z,35.90
2019-04-26T17:16:18.378Z,36.00
2019-04-26T17:18:48.774Z,36.00
2019-04-26T17:21:23.809Z,36.40
2019-04-26T17:26:46.931Z,36.20
2019-04-26T17:29:17.313Z,36.20
2019-04-26T17:31:47.667Z,36.30
2019-04-26T17:34:18.156Z,36.30
2019-04-26T17:36:50.458Z,36.30
2019-04-26T17:39:22.361Z,36.30
2019-04-26T17:41:54.361Z,36.30
2019-04-26T17:44:26.963Z,36.30
2019-04-26T17:46:59.703Z,36.30
2019-04-26T17:49:29.339Z,36.30
2019-04-26T17:52:01.955Z,36.30
2019-04-26T17:54:46.002Z,36.40
2019-04-26T17:57:08.854Z,36.40
2019-04-26T17:59:37.052Z,36.80
2019-04-26T18:02:40.688Z,37.40
2019-04-26T18:05:00.528Z,37.80
2019-04-26T18:07:40.257Z,38.00
2019-04-26T18:10:02.404Z,38.40
2019-04-26T18:12:32.641Z,38.60
2019-04-26T18:15:06.241Z,38.90
2019-04-26T18:17:58.060Z,38.90
2019-04-26T18:20:47.460Z,40.40
2019-04-26T18:23:18.765Z,42.30
2019-04-26T18:25:50.372Z,43.60
2019-04-26T18:28:20.790Z,44.20
2019-04-26T18:30:51.155Z,44.30
2019-04-26T18:33:24.206Z,44.60
2019-04-26T18:35:57.396Z,44.60
2019-04-26T18:38:25.576Z,44.60
2019-04-26T18:41:00.901Z,44.50
2019-04-26T18:43:28.007Z,44.50
2019-04-26T18:46:03.355Z,44.60
2019-04-26T18:48:40.583Z,44.50
2019-04-26T18:51:07.600Z,44.40
2019-04-26T18:54:02.795Z,44.50
2019-04-26T18:56:39.728Z,44.50
2019-04-26T18:59:11.728Z,44.60
2019-04-26T19:01:42.019Z,44.40
2019-04-26T19:04:15.531Z,44.40
2019-04-26T19:06:45.599Z,44.40
2019-04-26T19:09:27.676Z,44.30
2019-04-26T19:11:58.211Z,44.50
2019-04-26T19:14:58.791Z,44.50
2019-04-26T19:17:53.534Z,44.60
2019-04-26T19:20:35.227Z,44.60
2019-04-26T19:23:08.042Z,44.50
2019-04-26T19:25:40.903Z,44.60
2019-04-26T19:28:11.978Z,44.60
2019-04-26T19:30:48.909Z,44.60
2019-04-26T19:33:17.001Z,44.60
2019-04-26T19:35:47.471Z,44.60
2019-04-26T19:38:18.153Z,44.50
2019-04-26T19:40:48.643Z,44.50
2019-04-26T19:43:30.274Z,44.20
2019-04-26T19:46:10.092Z,44.20
2019-04-26T19:48:56.647Z,44.70
2019-04-26T19:51:46.021Z,44.20
2019-04-26T19:54:27.712Z,44.30
2019-04-26T19:57:01.090Z,44.20
2019-04-26T19:59:34.463Z,44.20
2019-04-26T20:02:18.217Z,44.40
2019-04-26T20:04:48.953Z,44.90
2019-04-26T20:07:19.380Z,44.30
2019-04-26T20:09:49.809Z,44.20
2019-04-26T20:12:23.379Z,44.30
2019-04-26T20:14:58.076Z,44.40
2019-04-26T20:17:24.352Z,44.30
2019-04-26T20:19:55.377Z,44.30
2019-04-26T20:22:28.595Z,44.60
2019-04-26T20:24:57.906Z,44.70
2019-04-26T20:27:28.277Z,44.40
2019-04-26T20:29:58.770Z,44.30
2019-04-26T20:32:33.259Z,44.40
2019-04-26T20:35:19.610Z,44.40
2019-04-26T20:37:50.036Z,44.40
2019-04-26T20:40:24.699Z,44.40
2019-04-26T20:42:57.326Z,44.30
2019-04-26T20:45:24.508Z,44.30
2019-04-26T20:47:55.796Z,44.30
2019-04-26T20:50:28.710Z,44.40
2019-04-26T20:53:02.079Z,44.30
2019-04-26T20:55:34.499Z,44.30
2019-04-26T20:58:05.567Z,44.40
2019-04-26T21:00:36.460Z,44.50
2019-04-26T21:03:20.172Z,44.30
2019-04-26T21:05:46.121Z,44.30
2019-04-26T21:08:12.403Z,44.40
2019-04-26T21:10:43.089Z,44.50
2019-04-26T21:13:13.537Z,44.70
2019-04-26T21:15:56.037Z,44.80
2019-04-26T21:18:15.919Z,44.70
2019-04-26T21:21:10.484Z,44.80
2019-04-26T21:23:40.052Z,44.70
2019-04-26T21:26:35.477Z,44.80
2019-04-26T21:29:30.695Z,44.70
2019-04-26T21:32:06.744Z,45.00
2019-04-26T21:34:50.778Z,44.90
2019-04-26T21:37:27.979Z,44.90
2019-04-26T21:40:11.873Z,45.10
2019-04-26T21:42:43.449Z,44.60
2019-04-26T21:45:14.387Z,45.30
2019-04-26T21:47:44.822Z,45.30
2019-04-26T21:50:15.937Z,45.20
2019-04-26T21:52:58.597Z,45.40
2019-04-26T21:55:35.346Z,45.30
2019-04-26T21:58:02.748Z,45.30
2019-04-26T22:00:53.622Z,45.30
2019-04-26T22:03:25.627Z,45.20
2019-04-26T22:05:56.066Z,45.30
2019-04-26T22:08:30.035Z,45.50
2019-04-26T22:11:00.515Z,45.50
2019-04-26T22:13:44.796Z,45.50
2019-04-26T22:16:37.183Z,45.60
2019-04-26T22:19:14.607Z,45.50
2019-04-26T22:22:05.790Z,45.50
2019-04-26T22:24:37.109Z,45.50
2019-04-26T22:27:07.498Z,45.40
2019-04-26T22:29:37.992Z,46.70
2019-04-26T22:32:11.452Z,45.80
2019-04-26T22:34:42.784Z,45.80
2019-04-26T22:37:14.817Z,45.70
2019-04-26T22:39:45.141Z,45.80
2019-04-26T22:42:15.945Z,46.40
2019-04-26T22:44:55.169Z,45.70
2019-04-26T22:47:33.904Z,45.60
2019-04-26T22:50:05.750Z,45.80
2019-04-26T22:52:36.194Z,45.80
2019-04-26T22:55:07.597Z,45.80
2019-04-26T22:57:38.118Z,45.90
2019-04-26T23:00:08.689Z,45.90
2019-04-26T23:02:40.659Z,46.00
2019-04-26T23:05:11.116Z,46.10
2019-04-26T23:07:41.611Z,46.30
2019-04-26T23:10:13.005Z,46.30
2019-04-26T23:13:04.525Z,46.30
2019-04-26T23:15:51.155Z,46.30
2019-04-26T23:18:51.528Z,46.30
2019-04-26T23:21:25.353Z,46.30
2019-04-26T23:23:55.838Z,46.30
2019-04-26T23:26:26.221Z,46.30
2019-04-26T23:28:56.726Z,46.30
2019-04-26T23:31:27.202Z,46.90
2019-04-26T23:33:57.718Z,46.20
2019-04-26T23:36:28.112Z,46.20
2019-04-26T23:38:58.589Z,46.30
2019-04-26T23:41:29.023Z,46.30
2019-04-26T23:44:02.712Z,46.30
2019-04-26T23:46:33.087Z,46.40
2019-04-26T23:49:03.615Z,46.50
2019-04-26T23:51:45.954Z,46.70
2019-04-26T23:54:16.510Z,46.60
2019-04-26T23:56:46.870Z,46.70
2019-04-26T23:59:20.748Z,46.70
